Terminal Aerodrome Forecast
Issued by NWS Newport/Morehead City, NC

Home | Current Version | Previous Version | Text Only | Print | Product List | Glossary On
Versions: 1 2 3 4 5 6 7 8 9 10 11 12 13 14 15 16 17 18 19 20 21 22 23
000
FTUS42 KMHX 282321
TAFEWN
TAF
KEWN 282321Z 2900/2924 11007KT P6SM BKN120
     FM290600 VRB04KT P6SM OVC030
     FM291000 10005KT P6SM VCSH OVC015
     FM291500 13008KT P6SM VCSH OVC035=

USA.gov is the U.S. government's official web portal to all federal, state and local government web resources and services.